• Join FlightAware (Why Join?)
  • Login
  • US Flag 
01:25PM EDT


 

Airport Tracker/Info


-or-


 

Live Flight TrackerFlight Track Log ✈ N600TR ✈ 14-Aug-2013 ✈ KATL - KPIT

Flight Track Log - Related Links

Times and Time Zones

All times are in EDT time to prevent confusion due to time zone crossing. See the N600TR flight status page for this flight to view local times or setup timezone preferences in your user account.

Time Position Orientation Groundspeed Altitude Reporting Facility
EDT Latitude Longitude Course Direction KTS MPH feet Rate Location/Type
07:33AM 33.6500 -84.4500 12° North 157 181 2,100  Level Atlanta TRACON
07:34AM 33.6667 -84.5167 287° West 229 264 3,700 2,160 Climbing Atlanta TRACON
07:35AM 33.6833 -84.6000 284° West 267 307 6,500 2,700 Climbing Atlanta TRACON
07:36AM 34.1126 -84.3125 North  Level FlightAware Approximate
07:36AM 33.7500 -84.6167 348° North 279 321 8,900  Level Atlanta TRACON
07:37AM 34.2330 -84.2915 12° North  Level FlightAware Approximate
07:38AM 34.3521 -84.2607 12° North  Level FlightAware Approximate
07:38AM 33.9331 -84.5544 16° North 311 358 11,900  Level Atlanta Center
07:39AM 34.0189 -84.5125 22° Northeast 320 368 13,600 1,620 Climbing Atlanta Center
07:40AM 34.1211 -84.4778 16° North 346 398 15,200 1,800 Climbing Atlanta Center
07:41AM 34.2214 -84.4333 20° North 366 421 17,200 1,800 Climbing Atlanta Center
07:42AM 34.3239 -84.3783 24° Northeast 380 437 18,800 1,560 Climbing Atlanta Center
07:43AM 34.4306 -84.3208 24° Northeast 402 463 20,400 1,500 Climbing Atlanta Center
07:44AM 34.5392 -84.2658 23° Northeast 414 476 21,900 1,380 Climbing Atlanta Center
07:45AM 34.6519 -84.2206 18° North 414 476 23,200 1,080 Climbing Atlanta Center
07:46AM 34.7708 -84.1753 17° North 427 491 24,100 1,200 Climbing Atlanta Center
07:47AM 34.8919 -84.1375 14° North 438 504 25,600 1,260 Climbing Atlanta Center
07:48AM 35.0150 -84.0997 14° North 443 510 26,700 1,020 Climbing Atlanta Center
07:49AM 35.1403 -84.0592 15° North 450 518 27,700 900 Climbing Atlanta Center
07:50AM 35.2697 -84.0158 15° North 461 531 28,600 900 Climbing Atlanta Center
07:51AM 35.4011 -83.9903 North 466 536 29,600 1,140 Climbing Atlanta Center
07:52AM 35.5306 -83.9750 North 466 536 30,900 1,140 Climbing Atlanta Center
07:53AM 35.6619 -83.9569 North 466 536 31,900 540 Climbing Atlanta Center
07:54AM 35.7953 -83.9311 North 466 536 32,000 360 Climbing Atlanta Center
07:55AM 35.9289 -83.8925 13° North 477 549 32,700 480 Climbing Atlanta Center
07:56AM 36.0561 -83.8103 28° Northeast 488 562 33,000 120 Climbing Atlanta Center
07:57AM 36.1747 -83.7069 35° Northeast 500 575 33,000  Level Atlanta Center
07:58AM 36.2994 -83.6161 30° Northeast 512 589 33,000 300 Level Atlanta Center
07:59AM 36.4283 -83.5306 28° Northeast 517 595 33,700 600 Climbing Atlanta Center
08:00AM 36.5978 -83.4175 28° Northeast 510 587 34,500 600 Climbing Indianapolis Center
08:01AM 36.7217 -83.3372 27° Northeast 503 579 35,100 240 Climbing Indianapolis Center
08:02AM 36.8456 -83.2483 30° Northeast 511 588 35,000 -60 Descending Indianapolis Center
08:03AM 36.9744 -83.1542 30° Northeast 528 608 35,000  Level Indianapolis Center
08:04AM 37.1047 -83.0611 30° Northeast 530 610 35,000  Level Indianapolis Center
08:05AM 37.2331 -82.9675 30° Northeast 527 606 35,000  Level Indianapolis Center
08:06AM 37.3622 -82.8803 28° Northeast 523 602 35,000  Level Indianapolis Center
08:07AM 37.4897 -82.7908 29° Northeast 523 602 35,000  Level Indianapolis Center
08:08AM 37.6167 -82.7031 29° Northeast 521 600 35,000  Level Indianapolis Center
08:09AM 37.7608 -82.5911 32° Northeast 523 602 35,000  Level Indianapolis Center
08:11AM 37.8767 -82.4761 38° Northeast 527 606 35,000 -240 Level Indianapolis Center
08:12AM 37.9900 -82.3606 39° Northeast 522 601 34,600 -960 Descending Indianapolis Center
08:13AM 38.1039 -82.2447 39° Northeast 523 602 33,100 -1,260 Descending Indianapolis Center
08:14AM 38.2128 -82.1411 37° Northeast 514 592 32,000 -1,260 Descending Indianapolis Center
08:15AM 38.3247 -82.0319 37° Northeast 507 583 30,600 -1,380 Descending Indianapolis Center
08:16AM 38.4367 -81.9231 37° Northeast 506 582 29,200 -1,320 Descending Indianapolis Center
08:17AM 38.5506 -81.8158 36° Northeast 508 585 27,900 -1,080 Descending Indianapolis Center
08:18AM 38.6689 -81.7206 32° Northeast 500 575 27,100 -480 Descending Indianapolis Center
08:19AM 38.7961 -81.6556 22° Northeast 474 545 27,000 -60 Descending Indianapolis Center
08:20AM 38.9247 -81.5975 19° North 479 551 27,000  Level Indianapolis Center
08:21AM 39.0797 -81.5244 20° North 490 564 27,000 -720 Level Indianapolis Center
08:22AM 39.2081 -81.4419 26° Northeast 518 596 25,600 -1,320 Descending Indianapolis Center
08:23AM 39.3208 -81.3214 40° Northeast 528 608 24,400 -780 Descending Indianapolis Center
08:24AM 39.4275 -81.2050 40° Northeast 506 582 24,000 -720 Descending Indianapolis Center
08:25AM 39.5378 -81.1064 35° Northeast 485 558 23,000 -1,260 Descending Indianapolis Center
08:26AM 39.6553 -81.0219 29° Northeast 482 555 21,500 -1,500 Descending Indianapolis Center
08:27AM 39.7678 -80.9492 26° Northeast 453 521 20,000 -2,280 Descending Indianapolis Center
08:28AM 39.8711 -80.8758 29° Northeast 424 488 16,900 -3,000 Descending Indianapolis Center
08:29AM 39.9775 -80.7978 29° Northeast 391 450 13,900 -2,700 Descending Indianapolis Center
08:30AM 40.0492 -80.6939 48° Northeast 382 440 11,400 -1,920 Descending Indianapolis Center
08:31AM 40.1139 -80.6022 47° Northeast 355 409 10,000 -720 Descending Indianapolis Center
08:32AM 40.1756 -80.5122 48° Northeast 338 389 10,000 -300 Level Indianapolis Center
08:33AM 40.2328 -80.4294 48° Northeast 319 367 9,400 -1,080 Descending Indianapolis Center
08:34AM 40.2839 -80.3531 49° Northeast 289 333 7,900 -1,680 Descending Indianapolis Center
08:35AM 40.3272 -80.2344 64° Northeast 263 303 5,600 -1,620 Descending Cleveland Center
08:36AM 40.3603 -80.1444 64° Northeast 255 293 4,200 -1,020 Descending Cleveland Center
08:37AM 40.3956 -80.0897 50° Northeast 226 260 3,600 -600 Descending Cleveland Center